createdAt,value
2018-05-12T00:00:18.857Z,1009.61
2018-05-12T00:10:11.035Z,1009.55
2018-05-12T00:20:10.820Z,1009.47
2018-05-12T00:30:11.405Z,1009.52
2018-05-12T00:40:19.917Z,1009.39
2018-05-12T00:50:20.579Z,1009.38
2018-05-12T01:00:10.571Z,1009.38
2018-05-12T01:10:11.704Z,1009.32
2018-05-12T01:20:10.976Z,1009.14
2018-05-12T01:30:10.781Z,1009.04
2018-05-12T01:40:11.039Z,1009.03
2018-05-12T01:50:21.956Z,1009.11
2018-05-12T02:00:10.588Z,1009.2
2018-05-12T02:10:10.814Z,1009.23
2018-05-12T02:20:10.602Z,1009.16
2018-05-12T02:30:10.618Z,1009.11
2018-05-12T02:40:11.163Z,1009.1
2018-05-12T02:50:11.344Z,1009.06
2018-05-12T03:00:11.294Z,1008.96
2018-05-12T03:10:21.470Z,1008.94
2018-05-12T03:20:11.004Z,1008.92
2018-05-12T03:30:11.043Z,1008.88
2018-05-12T03:40:10.823Z,1008.93
2018-05-12T03:50:10.235Z,1008.91
2018-05-12T04:00:10.853Z,1008.99
2018-05-12T04:10:11.454Z,1009.1
2018-05-12T04:20:10.433Z,1009.09
2018-05-12T04:30:10.588Z,1009.02
2018-05-12T04:40:20.247Z,1009.12
2018-05-12T04:50:10.720Z,1009.15
2018-05-12T05:00:19.372Z,1009.13
2018-05-12T05:10:10.774Z,1009.23
2018-05-12T05:20:19.287Z,1009.21
2018-05-12T05:30:10.408Z,1009.16
2018-05-12T05:40:11.297Z,1009.19
2018-05-12T05:50:10.735Z,1009.26
2018-05-12T06:00:10.550Z,1009.24
2018-05-12T06:10:10.883Z,1009.25
2018-05-12T06:20:11.457Z,1009.23
2018-05-12T06:30:11.253Z,1009.26
2018-05-12T06:40:11.122Z,1009.36
2018-05-12T06:50:10.671Z,1009.48
2018-05-12T07:00:10.998Z,1009.44
2018-05-12T07:10:11.298Z,1009.35
2018-05-12T07:20:10.363Z,1009.25
2018-05-12T07:30:10.620Z,1009.26
2018-05-12T07:40:11.519Z,1009.22
2018-05-12T07:50:10.650Z,1009.18
2018-05-12T08:00:11.004Z,1009.18
2018-05-12T08:10:11.115Z,1009.09
2018-05-12T08:20:21.861Z,1009.04
2018-05-12T08:30:21.349Z,1008.96
2018-05-12T08:40:11.119Z,1008.85
2018-05-12T08:50:11.042Z,1008.7
2018-05-12T09:00:10.785Z,1008.58
2018-05-12T09:10:12.479Z,1008.52
2018-05-12T09:20:21.424Z,1008.51
2018-05-12T09:30:20.576Z,1008.56
2018-05-12T09:40:18.493Z,1008.32
2018-05-12T09:50:08.554Z,1008.27
2018-05-12T10:00:08.539Z,1008.14
2018-05-12T10:10:08.556Z,1008.03
2018-05-12T10:20:08.551Z,1007.99
2018-05-12T10:30:08.645Z,1007.98
2018-05-12T10:40:08.582Z,1007.95
2018-05-12T10:50:08.555Z,1007.8
2018-05-12T11:00:08.649Z,1007.71
2018-05-12T11:10:08.602Z,1007.52
2018-05-12T11:20:08.656Z,1007.43
2018-05-12T11:30:08.888Z,1007.37
2018-05-12T11:40:20.234Z,1007.25
2018-05-12T11:50:13.838Z,1007.19
2018-05-12T12:00:08.621Z,1007.16
2018-05-12T12:10:08.635Z,1007.09
2018-05-12T12:20:08.589Z,1006.96
2018-05-12T12:30:08.643Z,1006.95
2018-05-12T12:40:08.620Z,1006.89
2018-05-12T12:50:08.670Z,1006.85
2018-05-12T13:00:08.638Z,1006.79
2018-05-12T13:10:08.704Z,1006.69
2018-05-12T13:20:08.657Z,1006.58
2018-05-12T13:30:08.615Z,1006.41
2018-05-12T13:40:08.677Z,1006.3
2018-05-12T13:50:08.637Z,1006.2
2018-05-12T14:00:08.694Z,1006.2
2018-05-12T14:10:08.659Z,1006.13
2018-05-12T14:20:08.613Z,1006.08
2018-05-12T14:30:09.410Z,1006.02
2018-05-12T14:40:09.449Z,1005.93
2018-05-12T15:00:08.681Z,1005.86
2018-05-12T15:10:08.626Z,1005.82
2018-05-12T15:20:08.702Z,1005.68
2018-05-12T15:30:08.660Z,1005.61
2018-05-12T15:40:08.732Z,1005.47
2018-05-12T15:50:08.676Z,1005.36
2018-05-12T16:00:08.654Z,1005.24
2018-05-12T16:10:08.726Z,1005.17
2018-05-12T16:20:08.654Z,1005.04
2018-05-12T16:30:08.728Z,1005.02
2018-05-12T16:40:08.690Z,1004.96
2018-05-12T16:50:08.775Z,1004.89
2018-05-12T17:00:08.706Z,1004.95
2018-05-12T17:10:08.684Z,1004.8
2018-05-12T17:20:08.742Z,1004.76
2018-05-12T17:30:08.683Z,1004.74
2018-05-12T17:40:08.750Z,1004.72
2018-05-12T17:50:08.810Z,1004.6
2018-05-12T18:00:08.695Z,1004.56
2018-05-12T18:10:08.740Z,1004.6
2018-05-12T18:20:08.696Z,1004.58
2018-05-12T18:30:08.758Z,1004.55
2018-05-12T18:40:08.715Z,1004.59
2018-05-12T18:50:08.719Z,1004.61
2018-05-12T19:00:09.015Z,1004.57
2018-05-12T19:10:08.737Z,1004.65
2018-05-12T19:20:08.874Z,1004.72
2018-05-12T19:30:08.735Z,1004.68
2018-05-12T19:40:08.710Z,1004.71
2018-05-12T19:50:08.775Z,1004.67
2018-05-12T20:00:08.758Z,1004.69
2018-05-12T20:10:08.685Z,1004.64
2018-05-12T20:20:08.746Z,1004.65
2018-05-12T20:30:08.698Z,1004.64
2018-05-12T20:40:08.787Z,1004.68
2018-05-12T20:50:08.769Z,1004.65
2018-05-12T21:00:08.715Z,1004.74
2018-05-12T21:10:08.777Z,1004.7
2018-05-12T21:20:09.096Z,1004.68
2018-05-12T21:30:08.787Z,1004.64
2018-05-12T21:40:08.754Z,1004.7
2018-05-12T21:50:08.801Z,1004.69
2018-05-12T22:00:08.801Z,1004.68
2018-05-12T22:10:08.744Z,1004.49
2018-05-12T22:20:08.703Z,1004.48
2018-05-12T22:30:08.751Z,1004.46
2018-05-12T22:40:08.742Z,1004.41
2018-05-12T22:50:08.776Z,1004.4
2018-05-12T23:00:08.743Z,1004.39
2018-05-12T23:10:08.860Z,1004.28
2018-05-12T23:20:08.779Z,1004.22
2018-05-12T23:30:08.910Z,1004.13
2018-05-12T23:40:09.182Z,1003.98
2018-05-12T23:50:08.745Z,1003.94
